sensor_id;sensor_type;location;lat;lon;timestamp;P1;P2;P0
62778;PMS7003;48821;48.796;2.396;2024-03-25T00:00:41;15.50;12.00;7.50
62778;PMS7003;48821;48.796;2.396;2024-03-25T00:01:52;15.50;11.00;7.00
62778;PMS7003;48821;48.796;2.396;2024-03-25T00:03:03;13.50;11.00;8.00
62778;PMS7003;48821;48.796;2.396;2024-03-25T00:04:14;15.00;11.00;7.00
62778;PMS7003;48821;48.796;2.396;2024-03-25T00:05:25;17.00;15.00;8.00
62778;PMS7003;48821;48.796;2.396;2024-03-25T00:06:37;16.00;11.20;6.20
62778;PMS7003;48821;48.796;2.396;2024-03-25T00:07:48;14.00;12.50;9.00
62778;PMS7003;48821;48.796;2.396;2024-03-25T00:09:03;17.00;15.67;9.00
62778;PMS7003;48821;48.796;2.396;2024-03-25T00:10:13;15.00;15.00;8.00
62778;PMS7003;48821;48.796;2.396;2024-03-25T00:11:24;15.00;14.00;9.00
62778;PMS7003;48821;48.796;2.396;2024-03-25T00:12:37;17.00;15.17;9.17
62778;PMS7003;48821;48.796;2.396;2024-03-25T00:13:48;18.00;15.00;9.00
62778;PMS7003;48821;48.796;2.396;2024-03-25T00:14:59;21.00;14.50;9.00
62778;PMS7003;48821;48.796;2.396;2024-03-25T00:16:10;15.00;14.00;9.00
62778;PMS7003;48821;48.796;2.396;2024-03-25T00:17:21;20.00;18.00;10.00
62778;PMS7003;48821;48.796;2.396;2024-03-25T00:18:33;16.25;13.25;8.00
62778;PMS7003;48821;48.796;2.396;2024-03-25T00:19:44;16.00;16.00;10.00
62778;PMS7003;48821;48.796;2.396;2024-03-25T00:21:00;14.33;9.00;9.00
62778;PMS7003;48821;48.796;2.396;2024-03-25T00:22:11;20.25;18.50;10.75
62778;PMS7003;48821;48.796;2.396;2024-03-25T00:23:24;22.67;15.83;10.50
62778;PMS7003;48821;48.796;2.396;2024-03-25T00:24:36;21.00;18.67;10.33
62778;PMS7003;48821;48.796;2.396;2024-03-25T00:25:47;17.50;15.00;8.50
62778;PMS7003;48821;48.796;2.396;2024-03-25T00:26:59;18.40;18.20;10.00
62778;PMS7003;48821;48.796;2.396;2024-03-25T00:28:12;17.67;13.67;8.00
62778;PMS7003;48821;48.796;2.396;2024-03-25T00:29:22;17.00;15.00;8.50
62778;PMS7003;48821;48.796;2.396;2024-03-25T00:30:33;17.75;12.25;7.00
62778;PMS7003;48821;48.796;2.396;2024-03-25T00:31:44;17.00;14.00;8.00
62778;PMS7003;48821;48.796;2.396;2024-03-25T00:32:55;20.00;15.00;8.50
62778;PMS7003;48821;48.796;2.396;2024-03-25T00:34:06;15.50;13.00;8.00
62778;PMS7003;48821;48.796;2.396;2024-03-25T00:35:17;10.00;9.00;6.00
62778;PMS7003;48821;48.796;2.396;2024-03-25T00:36:28;13.50;10.00;8.00
62778;PMS7003;48821;48.796;2.396;2024-03-25T00:37:40;17.50;13.50;8.00
62778;PMS7003;48821;48.796;2.396;2024-03-25T00:38:51;11.50;10.00;6.00
62778;PMS7003;48821;48.796;2.396;2024-03-25T00:40:02;16.00;14.50;8.00
62778;PMS7003;48821;48.796;2.396;2024-03-25T00:41:14;11.50;10.50;6.00
62778;PMS7003;48821;48.796;2.396;2024-03-25T00:42:25;13.00;10.00;7.00
62778;PMS7003;48821;48.796;2.396;2024-03-25T00:43:36;11.00;10.50;6.00
62778;PMS7003;48821;48.796;2.396;2024-03-25T00:44:47;13.50;13.50;8.00
62778;PMS7003;48821;48.796;2.396;2024-03-25T00:45:58;11.50;10.00;5.00
62778;PMS7003;48821;48.796;2.396;2024-03-25T00:47:09;18.50;13.50;9.00
62778;PMS7003;48821;48.796;2.396;2024-03-25T00:48:20;13.33;10.00;5.00
62778;PMS7003;48821;48.796;2.396;2024-03-25T00:49:31;14.50;12.00;7.50
62778;PMS7003;48821;48.796;2.396;2024-03-25T00:50:42;15.50;10.75;7.00
62778;PMS7003;48821;48.796;2.396;2024-03-25T00:51:53;15.00;14.33;7.67
62778;PMS7003;48821;48.796;2.396;2024-03-25T00:53:04;14.67;13.00;8.00
62778;PMS7003;48821;48.796;2.396;2024-03-25T00:54:14;17.00;15.00;8.00
62778;PMS7003;48821;48.796;2.396;2024-03-25T00:55:25;14.75;14.00;7.50
62778;PMS7003;48821;48.796;2.396;2024-03-25T00:56:39;15.33;13.33;8.67
62778;PMS7003;48821;48.796;2.396;2024-03-25T00:57:49;16.00;12.00;7.00
62778;PMS7003;48821;48.796;2.396;2024-03-25T00:59:00;19.00;17.00;9.00
62778;PMS7003;48821;48.796;2.396;2024-03-25T01:00:13;16.50;12.50;8.00
62778;PMS7003;48821;48.796;2.396;2024-03-25T01:01:25;18.00;14.50;8.50
62778;PMS7003;48821;48.796;2.396;2024-03-25T01:02:36;11.67;11.67;7.67
62778;PMS7003;48821;48.796;2.396;2024-03-25T01:03:48;14.75;11.50;8.00
62778;PMS7003;48821;48.796;2.396;2024-03-25T01:04:58;14.00;9.33;6.67
62778;PMS7003;48821;48.796;2.396;2024-03-25T01:06:09;11.67;8.00;6.00
62778;PMS7003;48821;48.796;2.396;2024-03-25T01:07:20;14.00;12.00;7.00
62778;PMS7003;48821;48.796;2.396;2024-03-25T01:08:31;15.33;12.00;7.00
62778;PMS7003;48821;48.796;2.396;2024-03-25T01:09:42;19.50;13.00;8.50
62778;PMS7003;48821;48.796;2.396;2024-03-25T01:10:55;18.83;16.00;9.00
62778;PMS7003;48821;48.796;2.396;2024-03-25T01:12:06;14.50;11.00;7.00
62778;PMS7003;48821;48.796;2.396;2024-03-25T01:13:17;18.00;14.50;8.25
62778;PMS7003;48821;48.796;2.396;2024-03-25T01:14:28;17.00;12.75;7.75
62778;PMS7003;48821;48.796;2.396;2024-03-25T01:15:39;11.50;11.50;8.00
62778;PMS7003;48821;48.796;2.396;2024-03-25T01:16:50;13.00;12.00;8.00
62778;PMS7003;48821;48.796;2.396;2024-03-25T01:18:01;19.75;16.25;10.50
62778;PMS7003;48821;48.796;2.396;2024-03-25T01:19:12;16.00;14.50;9.50
62778;PMS7003;48821;48.796;2.396;2024-03-25T01:20:23;21.50;18.00;9.50
62778;PMS7003;48821;48.796;2.396;2024-03-25T01:21:34;17.00;15.75;9.00
62778;PMS7003;48821;48.796;2.396;2024-03-25T01:22:45;16.00;16.00;9.00
62778;PMS7003;48821;48.796;2.396;2024-03-25T01:23:56;15.00;11.33;7.00
62778;PMS7003;48821;48.796;2.396;2024-03-25T01:25:06;15.00;14.00;8.50
62778;PMS7003;48821;48.796;2.396;2024-03-25T01:26:17;18.00;15.00;9.00
62778;PMS7003;48821;48.796;2.396;2024-03-25T01:27:28;19.00;16.50;9.00
62778;PMS7003;48821;48.796;2.396;2024-03-25T01:28:39;18.00;16.00;10.00
62778;PMS7003;48821;48.796;2.396;2024-03-25T01:29:50;21.00;16.00;9.50
62778;PMS7003;48821;48.796;2.396;2024-03-25T01:31:01;16.50;16.50;9.50
62778;PMS7003;48821;48.796;2.396;2024-03-25T01:32:12;20.75;17.25;8.75
62778;PMS7003;48821;48.796;2.396;2024-03-25T01:33:23;15.50;15.50;7.50
62778;PMS7003;48821;48.796;2.396;2024-03-25T01:34:35;18.33;16.67;10.00
62778;PMS7003;48821;48.796;2.396;2024-03-25T01:35:46;21.00;17.00;10.00
62778;PMS7003;48821;48.796;2.396;2024-03-25T01:36:57;17.00;17.00;10.00
62778;PMS7003;48821;48.796;2.396;2024-03-25T01:38:09;19.33;19.00;10.33
62778;PMS7003;48821;48.796;2.396;2024-03-25T01:39:20;19.00;18.00;12.67
62778;PMS7003;48821;48.796;2.396;2024-03-25T01:40:31;20.00;16.50;10.00
62778;PMS7003;48821;48.796;2.396;2024-03-25T01:41:43;20.50;18.00;9.00
62778;PMS7003;48821;48.796;2.396;2024-03-25T01:43:00;20.50;18.00;10.50
62778;PMS7003;48821;48.796;2.396;2024-03-25T01:44:12;14.00;14.00;9.50
62778;PMS7003;48821;48.796;2.396;2024-03-25T01:45:24;15.00;10.50;5.00
62778;PMS7003;48821;48.796;2.396;2024-03-25T01:46:36;25.75;17.00;7.25
62778;PMS7003;48821;48.796;2.396;2024-03-25T01:47:48;18.67;16.00;11.33
62778;PMS7003;48821;48.796;2.396;2024-03-25T01:49:01;20.20;16.80;8.60
62778;PMS7003;48821;48.796;2.396;2024-03-25T01:50:13;16.80;16.00;7.40
62778;PMS7003;48821;48.796;2.396;2024-03-25T01:51:25;22.00;20.00;10.67
62778;PMS7003;48821;48.796;2.396;2024-03-25T01:52:36;18.00;16.50;12.00
62778;PMS7003;48821;48.796;2.396;2024-03-25T01:53:48;21.33;17.00;11.67
62778;PMS7003;48821;48.796;2.396;2024-03-25T01:55:00;21.33;20.33;12.33
62778;PMS7003;48821;48.796;2.396;2024-03-25T01:56:13;16.00;15.00;10.00
62778;PMS7003;48821;48.796;2.396;2024-03-25T01:57:28;22.83;17.00;10.00
62778;PMS7003;48821;48.796;2.396;2024-03-25T01:58:40;21.00;19.00;12.20
62778;PMS7003;48821;48.796;2.396;2024-03-25T01:59:51;18.00;18.00;13.00
62778;PMS7003;48821;48.796;2.396;2024-03-25T02:01:03;19.00;17.33;12.67
62778;PMS7003;48821;48.796;2.396;2024-03-25T02:02:16;19.67;17.33;13.00
62778;PMS7003;48821;48.796;2.396;2024-03-25T02:03:27;24.67;20.00;11.67
62778;PMS7003;48821;48.796;2.396;2024-03-25T02:04:40;18.00;17.00;12.00
62778;PMS7003;48821;48.796;2.396;2024-03-25T02:05:59;18.50;16.17;8.00
62778;PMS7003;48821;48.796;2.396;2024-03-25T02:07:14;24.40;20.40;11.80
62778;PMS7003;48821;48.796;2.396;2024-03-25T02:08:26;26.00;18.67;12.00
62778;PMS7003;48821;48.796;2.396;2024-03-25T02:09:39;19.00;18.00;12.00
62778;PMS7003;48821;48.796;2.396;2024-03-25T02:10:52;23.40;20.80;13.40
62778;PMS7003;48821;48.796;2.396;2024-03-25T02:12:06;21.33;19.00;13.00
62778;PMS7003;48821;48.796;2.396;2024-03-25T02:13:18;20.67;18.33;12.00
62778;PMS7003;48821;48.796;2.396;2024-03-25T02:14:29;26.00;20.33;12.33
62778;PMS7003;48821;48.796;2.396;2024-03-25T02:15:42;25.33;20.67;13.67
62778;PMS7003;48821;48.796;2.396;2024-03-25T02:16:54;23.00;20.33;13.33
62778;PMS7003;48821;48.796;2.396;2024-03-25T02:18:05;18.50;15.00;9.00
62778;PMS7003;48821;48.796;2.396;2024-03-25T02:19:18;21.80;18.00;11.00
62778;PMS7003;48821;48.796;2.396;2024-03-25T02:20:29;21.00;19.00;12.00
62778;PMS7003;48821;48.796;2.396;2024-03-25T02:21:41;19.20;17.80;10.60
62778;PMS7003;48821;48.796;2.396;2024-03-25T02:22:52;27.00;19.00;11.67
62778;PMS7003;48821;48.796;2.396;2024-03-25T02:24:05;21.17;18.83;11.83
62778;PMS7003;48821;48.796;2.396;2024-03-25T02:25:20;19.67;19.67;13.00
62778;PMS7003;48821;48.796;2.396;2024-03-25T02:26:33;21.67;19.33;11.00
62778;PMS7003;48821;48.796;2.396;2024-03-25T02:27:44;21.00;19.00;9.50
62778;PMS7003;48821;48.796;2.396;2024-03-25T02:28:57;21.83;18.83;10.17
62778;PMS7003;48821;48.796;2.396;2024-03-25T02:30:09;21.00;19.33;12.00
62778;PMS7003;48821;48.796;2.396;2024-03-25T02:31:23;22.67;20.00;13.00
62778;PMS7003;48821;48.796;2.396;2024-03-25T02:32:35;27.33;22.00;13.00
62778;PMS7003;48821;48.796;2.396;2024-03-25T02:33:47;24.67;20.00;12.33
62778;PMS7003;48821;48.796;2.396;2024-03-25T02:34:59;19.33;18.33;13.00
62778;PMS7003;48821;48.796;2.396;2024-03-25T02:36:14;19.83;19.83;11.50
62778;PMS7003;48821;48.796;2.396;2024-03-25T02:37:25;26.00;20.00;12.33
62778;PMS7003;48821;48.796;2.396;2024-03-25T02:38:39;27.00;20.17;14.00
62778;PMS7003;48821;48.796;2.396;2024-03-25T02:39:50;26.50;26.00;14.00
62778;PMS7003;48821;48.796;2.396;2024-03-25T02:41:02;23.67;20.00;12.67
62778;PMS7003;48821;48.796;2.396;2024-03-25T02:42:14;22.67;21.00;13.67
62778;PMS7003;48821;48.796;2.396;2024-03-25T02:43:25;22.50;19.00;9.50
62778;PMS7003;48821;48.796;2.396;2024-03-25T02:44:37;26.33;21.33;11.67
62778;PMS7003;48821;48.796;2.396;2024-03-25T02:45:49;23.33;20.33;14.67
62778;PMS7003;48821;48.796;2.396;2024-03-25T02:47:01;28.33;21.67;14.00
62778;PMS7003;48821;48.796;2.396;2024-03-25T02:48:12;21.00;20.33;12.33
62778;PMS7003;48821;48.796;2.396;2024-03-25T02:49:24;28.00;22.67;12.67
62778;PMS7003;48821;48.796;2.396;2024-03-25T02:50:36;24.33;23.00;16.33
62778;PMS7003;48821;48.796;2.396;2024-03-25T02:51:48;28.00;24.33;13.67
62778;PMS7003;48821;48.796;2.396;2024-03-25T02:53:00;26.33;23.00;15.33
62778;PMS7003;48821;48.796;2.396;2024-03-25T02:54:12;23.33;23.00;15.33
62778;PMS7003;48821;48.796;2.396;2024-03-25T02:55:23;35.00;26.50;15.00
62778;PMS7003;48821;48.796;2.396;2024-03-25T02:56:36;28.60;26.80;17.20
62778;PMS7003;48821;48.796;2.396;2024-03-25T02:57:47;28.00;24.33;16.00
62778;PMS7003;48821;48.796;2.396;2024-03-25T02:58:59;30.00;25.00;14.67
62778;PMS7003;48821;48.796;2.396;2024-03-25T03:00:11;27.67;24.00;14.67
62778;PMS7003;48821;48.796;2.396;2024-03-25T03:01:24;28.33;24.67;14.67
62778;PMS7003;48821;48.796;2.396;2024-03-25T03:02:35;20.50;18.00;9.00
62778;PMS7003;48821;48.796;2.396;2024-03-25T03:03:46;22.00;20.33;13.67
62778;PMS7003;48821;48.796;2.396;2024-03-25T03:04:58;23.67;22.67;14.67
62778;PMS7003;48821;48.796;2.396;2024-03-25T03:06:10;23.67;19.00;11.67
62778;PMS7003;48821;48.796;2.396;2024-03-25T03:07:21;24.00;22.00;14.00
62778;PMS7003;48821;48.796;2.396;2024-03-25T03:08:33;25.67;20.33;13.00
62778;PMS7003;48821;48.796;2.396;2024-03-25T03:09:46;21.33;20.50;12.83
62778;PMS7003;48821;48.796;2.396;2024-03-25T03:10:58;28.33;23.00;14.67
62778;PMS7003;48821;48.796;2.396;2024-03-25T03:12:10;27.67;23.33;15.00
62778;PMS7003;48821;48.796;2.396;2024-03-25T03:13:21;29.40;25.20;16.20
62778;PMS7003;48821;48.796;2.396;2024-03-25T03:14:33;32.00;28.00;18.00
62778;PMS7003;48821;48.796;2.396;2024-03-25T03:15:45;33.80;26.40;16.80
62778;PMS7003;48821;48.796;2.396;2024-03-25T03:16:57;29.33;28.00;16.00
62778;PMS7003;48821;48.796;2.396;2024-03-25T03:18:09;27.33;26.33;16.67
62778;PMS7003;48821;48.796;2.396;2024-03-25T03:19:21;33.20;24.20;15.40
62778;PMS7003;48821;48.796;2.396;2024-03-25T03:20:33;28.00;25.00;17.00
62778;PMS7003;48821;48.796;2.396;2024-03-25T03:21:45;29.33;26.00;15.67
62778;PMS7003;48821;48.796;2.396;2024-03-25T03:22:57;26.67;25.00;15.67
62778;PMS7003;48821;48.796;2.396;2024-03-25T03:24:09;29.00;24.67;16.00
62778;PMS7003;48821;48.796;2.396;2024-03-25T03:25:21;27.00;24.00;15.67
62778;PMS7003;48821;48.796;2.396;2024-03-25T03:26:33;30.00;26.00;15.67
62778;PMS7003;48821;48.796;2.396;2024-03-25T03:27:44;26.00;20.67;13.00
62778;PMS7003;48821;48.796;2.396;2024-03-25T03:28:57;21.67;21.67;13.33
62778;PMS7003;48821;48.796;2.396;2024-03-25T03:30:07;25.00;25.00;16.00
62778;PMS7003;48821;48.796;2.396;2024-03-25T03:31:20;29.33;27.33;19.00
62778;PMS7003;48821;48.796;2.396;2024-03-25T03:32:35;27.33;21.67;14.00
62778;PMS7003;48821;48.796;2.396;2024-03-25T03:33:49;28.67;25.00;15.67
62778;PMS7003;48821;48.796;2.396;2024-03-25T03:35:00;24.50;23.00;15.00
62778;PMS7003;48821;48.796;2.396;2024-03-25T03:36:12;25.00;21.67;14.00
62778;PMS7003;48821;48.796;2.396;2024-03-25T03:37:24;24.33;22.67;14.33
62778;PMS7003;48821;48.796;2.396;2024-03-25T03:38:35;23.00;20.80;13.60
62778;PMS7003;48821;48.796;2.396;2024-03-25T03:39:47;30.67;23.33;16.00
62778;PMS7003;48821;48.796;2.396;2024-03-25T03:41:00;31.00;25.00;16.67
62778;PMS7003;48821;48.796;2.396;2024-03-25T03:42:13;26.00;26.00;16.00
62778;PMS7003;48821;48.796;2.396;2024-03-25T03:43:25;24.00;21.00;14.67
62778;PMS7003;48821;48.796;2.396;2024-03-25T03:44:37;28.33;21.33;14.67
62778;PMS7003;48821;48.796;2.396;2024-03-25T03:45:49;28.00;23.00;14.00
62778;PMS7003;48821;48.796;2.396;2024-03-25T03:47:01;25.00;22.00;14.33
62778;PMS7003;48821;48.796;2.396;2024-03-25T03:48:13;23.67;19.67;13.00
62778;PMS7003;48821;48.796;2.396;2024-03-25T03:49:24;20.33;19.00;11.67
62778;PMS7003;48821;48.796;2.396;2024-03-25T03:50:36;29.67;20.00;14.00
62778;PMS7003;48821;48.796;2.396;2024-03-25T03:51:48;25.33;21.67;14.33
62778;PMS7003;48821;48.796;2.396;2024-03-25T03:53:00;27.67;19.67;14.00
62778;PMS7003;48821;48.796;2.396;2024-03-25T03:54:12;31.67;25.33;15.33
62778;PMS7003;48821;48.796;2.396;2024-03-25T03:55:24;22.67;22.67;16.00
62778;PMS7003;48821;48.796;2.396;2024-03-25T03:56:36;22.40;20.60;13.20
62778;PMS7003;48821;48.796;2.396;2024-03-25T03:57:48;23.67;18.00;12.00
62778;PMS7003;48821;48.796;2.396;2024-03-25T03:59:00;21.67;19.33;12.67
62778;PMS7003;48821;48.796;2.396;2024-03-25T04:00:12;27.67;22.33;12.00
62778;PMS7003;48821;48.796;2.396;2024-03-25T04:01:24;24.50;18.50;13.50
62778;PMS7003;48821;48.796;2.396;2024-03-25T04:02:35;25.00;22.00;15.00
62778;PMS7003;48821;48.796;2.396;2024-03-25T04:03:48;27.17;23.67;14.17
62778;PMS7003;48821;48.796;2.396;2024-03-25T04:05:00;23.00;22.00;14.67
62778;PMS7003;48821;48.796;2.396;2024-03-25T04:06:12;22.00;19.50;12.00
62778;PMS7003;48821;48.796;2.396;2024-03-25T04:07:24;25.67;21.33;12.00
62778;PMS7003;48821;48.796;2.396;2024-03-25T04:08:37;25.00;24.00;15.00
62778;PMS7003;48821;48.796;2.396;2024-03-25T04:09:49;29.00;22.00;11.33
62778;PMS7003;48821;48.796;2.396;2024-03-25T04:11:01;24.33;20.67;13.00
62778;PMS7003;48821;48.796;2.396;2024-03-25T04:12:13;28.67;23.33;13.00
62778;PMS7003;48821;48.796;2.396;2024-03-25T04:13:25;22.80;18.40;13.00
62778;PMS7003;48821;48.796;2.396;2024-03-25T04:14:36;22.33;22.33;13.67
62778;PMS7003;48821;48.796;2.396;2024-03-25T04:15:49;26.33;21.33;12.00
62778;PMS7003;48821;48.796;2.396;2024-03-25T04:17:01;24.67;23.00;12.67
62778;PMS7003;48821;48.796;2.396;2024-03-25T04:18:13;22.67;20.67;13.00
62778;PMS7003;48821;48.796;2.396;2024-03-25T04:19:26;26.33;20.00;12.00
62778;PMS7003;48821;48.796;2.396;2024-03-25T04:20:40;23.83;20.67;10.50
62778;PMS7003;48821;48.796;2.396;2024-03-25T04:21:55;22.50;18.50;12.00
62778;PMS7003;48821;48.796;2.396;2024-03-25T04:23:07;24.33;20.67;12.00
62778;PMS7003;48821;48.796;2.396;2024-03-25T04:24:17;24.00;18.50;12.00
62778;PMS7003;48821;48.796;2.396;2024-03-25T04:25:28;24.50;20.25;11.75
62778;PMS7003;48821;48.796;2.396;2024-03-25T04:26:40;22.33;19.00;12.00
62778;PMS7003;48821;48.796;2.396;2024-03-25T04:27:51;21.75;18.25;12.00
62778;PMS7003;48821;48.796;2.396;2024-03-25T04:29:02;23.67;18.00;10.67
62778;PMS7003;48821;48.796;2.396;2024-03-25T04:30:14;17.67;17.67;12.67
62778;PMS7003;48821;48.796;2.396;2024-03-25T04:31:27;23.83;19.00;12.83
62778;PMS7003;48821;48.796;2.396;2024-03-25T04:32:39;19.67;18.67;12.00
62778;PMS7003;48821;48.796;2.396;2024-03-25T04:33:51;22.00;19.00;12.00
62778;PMS7003;48821;48.796;2.396;2024-03-25T04:35:02;21.00;21.00;13.00
62778;PMS7003;48821;48.796;2.396;2024-03-25T04:36:13;19.50;19.50;11.50
62778;PMS7003;48821;48.796;2.396;2024-03-25T04:37:24;21.75;16.50;10.75
62778;PMS7003;48821;48.796;2.396;2024-03-25T04:38:38;19.00;15.86;12.71
62778;PMS7003;48821;48.796;2.396;2024-03-25T04:39:50;31.00;19.00;13.67
62778;PMS7003;48821;48.796;2.396;2024-03-25T04:41:02;22.67;21.00;13.00
62778;PMS7003;48821;48.796;2.396;2024-03-25T04:42:13;28.33;20.33;12.67
62778;PMS7003;48821;48.796;2.396;2024-03-25T04:43:24;18.50;17.00;9.00
62778;PMS7003;48821;48.796;2.396;2024-03-25T04:44:36;21.00;17.67;12.67
62778;PMS7003;48821;48.796;2.396;2024-03-25T04:45:47;23.00;21.00;13.00
62778;PMS7003;48821;48.796;2.396;2024-03-25T04:47:02;19.33;17.33;10.67
62778;PMS7003;48821;48.796;2.396;2024-03-25T04:48:15;22.83;18.50;12.00
62778;PMS7003;48821;48.796;2.396;2024-03-25T04:49:27;20.60;18.00;9.40
62778;PMS7003;48821;48.796;2.396;2024-03-25T04:50:38;13.00;9.00;9.00
62778;PMS7003;48821;48.796;2.396;2024-03-25T04:51:49;16.00;15.50;9.00
62778;PMS7003;48821;48.796;2.396;2024-03-25T04:53:02;20.33;17.67;10.67
62778;PMS7003;48821;48.796;2.396;2024-03-25T04:54:16;21.71;17.00;9.86
62778;PMS7003;48821;48.796;2.396;2024-03-25T04:55:28;22.67;18.00;12.67
62778;PMS7003;48821;48.796;2.396;2024-03-25T04:56:40;19.33;16.67;10.67
62778;PMS7003;48821;48.796;2.396;2024-03-25T04:57:51;20.67;18.33;13.00
62778;PMS7003;48821;48.796;2.396;2024-03-25T04:59:02;17.00;15.50;8.00
62778;PMS7003;48821;48.796;2.396;2024-03-25T05:00:14;22.33;17.00;12.00
62778;PMS7003;48821;48.796;2.396;2024-03-25T05:01:26;18.67;16.00;12.00
62778;PMS7003;48821;48.796;2.396;2024-03-25T05:02:38;21.00;19.33;12.00
62778;PMS7003;48821;48.796;2.396;2024-03-25T05:03:51;26.33;20.00;12.00
62778;PMS7003;48821;48.796;2.396;2024-03-25T05:05:02;20.00;18.50;12.00
62778;PMS7003;48821;48.796;2.396;2024-03-25T05:06:13;20.50;16.00;9.00
62778;PMS7003;48821;48.796;2.396;2024-03-25T05:07:24;17.75;17.00;12.00
62778;PMS7003;48821;48.796;2.396;2024-03-25T05:08:37;20.33;17.83;10.83
62778;PMS7003;48821;48.796;2.396;2024-03-25T05:09:48;17.50;16.50;9.00
62778;PMS7003;48821;48.796;2.396;2024-03-25T05:11:00;20.80;17.80;8.80
62778;PMS7003;48821;48.796;2.396;2024-03-25T05:12:10;16.50;13.50;8.50
62778;PMS7003;48821;48.796;2.396;2024-03-25T05:13:21;18.50;17.00;11.00
62778;PMS7003;48821;48.796;2.396;2024-03-25T05:14:32;21.00;17.75;11.25
62778;PMS7003;48821;48.796;2.396;2024-03-25T05:15:52;20.00;17.00;9.00
62778;PMS7003;48821;48.796;2.396;2024-03-25T05:17:03;20.00;16.00;10.00
62778;PMS7003;48821;48.796;2.396;2024-03-25T05:18:18;22.40;18.20;11.60
62778;PMS7003;48821;48.796;2.396;2024-03-25T05:19:28;17.00;17.00;8.00
62778;PMS7003;48821;48.796;2.396;2024-03-25T05:20:40;19.00;15.00;8.00
62778;PMS7003;48821;48.796;2.396;2024-03-25T05:21:51;14.00;12.50;7.50
62778;PMS7003;48821;48.796;2.396;2024-03-25T05:23:04;21.80;16.60;10.60
62778;PMS7003;48821;48.796;2.396;2024-03-25T05:24:15;16.00;14.50;10.50
62778;PMS7003;48821;48.796;2.396;2024-03-25T05:25:28;17.50;16.67;9.50
62778;PMS7003;48821;48.796;2.396;2024-03-25T05:26:39;17.50;15.50;9.00
62778;PMS7003;48821;48.796;2.396;2024-03-25T05:27:50;14.00;14.00;7.00
62778;PMS7003;48821;48.796;2.396;2024-03-25T05:29:01;16.50;15.00;9.50
62778;PMS7003;48821;48.796;2.396;2024-03-25T05:30:15;17.17;15.00;9.00
62778;PMS7003;48821;48.796;2.396;2024-03-25T05:31:25;13.50;12.50;7.00
62778;PMS7003;48821;48.796;2.396;2024-03-25T05:32:36;14.50;13.50;8.00
62778;PMS7003;48821;48.796;2.396;2024-03-25T05:33:47;18.00;15.00;8.00
62778;PMS7003;48821;48.796;2.396;2024-03-25T05:34:59;17.50;16.00;9.00
62778;PMS7003;48821;48.796;2.396;2024-03-25T05:36:10;18.50;13.50;9.00
62778;PMS7003;48821;48.796;2.396;2024-03-25T05:37:21;17.00;14.00;7.50
62778;PMS7003;48821;48.796;2.396;2024-03-25T05:38:32;17.50;14.00;7.00
62778;PMS7003;48821;48.796;2.396;2024-03-25T05:39:43;8.00;8.00;2.00
62778;PMS7003;48821;48.796;2.396;2024-03-25T05:40:54;17.50;17.50;11.75
62778;PMS7003;48821;48.796;2.396;2024-03-25T05:42:08;19.67;16.33;10.17
62778;PMS7003;48821;48.796;2.396;2024-03-25T05:43:19;17.67;14.33;10.33
62778;PMS7003;48821;48.796;2.396;2024-03-25T05:44:31;19.00;13.75;8.00
62778;PMS7003;48821;48.796;2.396;2024-03-25T05:45:49;20.50;16.00;9.00
62778;PMS7003;48821;48.796;2.396;2024-03-25T05:47:01;17.50;13.25;6.75
62778;PMS7003;48821;48.796;2.396;2024-03-25T05:48:12;15.50;14.50;8.50
62778;PMS7003;48821;48.796;2.396;2024-03-25T05:49:23;14.00;13.00;8.00
62778;PMS7003;48821;48.796;2.396;2024-03-25T05:50:35;18.00;15.00;7.33
62778;PMS7003;48821;48.796;2.396;2024-03-25T05:51:46;17.50;15.00;8.00
62778;PMS7003;48821;48.796;2.396;2024-03-25T05:52:58;22.25;16.00;8.00
62778;PMS7003;48821;48.796;2.396;2024-03-25T05:54:09;12.50;12.00;7.00
62778;PMS7003;48821;48.796;2.396;2024-03-25T05:55:23;19.43;13.43;9.00
62778;PMS7003;48821;48.796;2.396;2024-03-25T05:56:34;16.25;15.00;7.00
62778;PMS7003;48821;48.796;2.396;2024-03-25T05:57:45;12.50;11.25;7.00
62778;PMS7003;48821;48.796;2.396;2024-03-25T05:59:00;13.00;9.33;3.67
62778;PMS7003;48821;48.796;2.396;2024-03-25T06:00:11;16.00;12.50;5.00
62778;PMS7003;48821;48.796;2.396;2024-03-25T06:01:23;15.33;14.33;8.00
62778;PMS7003;48821;48.796;2.396;2024-03-25T06:02:34;16.50;15.50;9.50
62778;PMS7003;48821;48.796;2.396;2024-03-25T06:03:45;13.33;8.00;5.00
62778;PMS7003;48821;48.796;2.396;2024-03-25T06:04:56;18.00;17.00;13.00
62778;PMS7003;48821;48.796;2.396;2024-03-25T06:06:07;15.00;14.00;8.33
62778;PMS7003;48821;48.796;2.396;2024-03-25T06:07:18;17.00;15.00;8.00
62778;PMS7003;48821;48.796;2.396;2024-03-25T06:08:29;18.50;15.00;8.00
62778;PMS7003;48821;48.796;2.396;2024-03-25T06:09:40;14.50;13.00;7.50
62778;PMS7003;48821;48.796;2.396;2024-03-25T06:10:51;15.67;14.00;7.33
62778;PMS7003;48821;48.796;2.396;2024-03-25T06:12:02;17.00;15.00;8.50
62778;PMS7003;48821;48.796;2.396;2024-03-25T06:13:13;17.00;15.00;8.00
62778;PMS7003;48821;48.796;2.396;2024-03-25T06:14:24;18.00;15.00;10.00
62778;PMS7003;48821;48.796;2.396;2024-03-25T06:15:35;16.50;14.00;10.00
62778;PMS7003;48821;48.796;2.396;2024-03-25T06:16:46;16.00;13.00;7.50
62778;PMS7003;48821;48.796;2.396;2024-03-25T06:17:58;16.00;15.50;9.00
62778;PMS7003;48821;48.796;2.396;2024-03-25T06:19:09;8.33;6.67;6.00
62778;PMS7003;48821;48.796;2.396;2024-03-25T06:20:20;17.00;15.25;9.00
62778;PMS7003;48821;48.796;2.396;2024-03-25T06:21:31;17.50;14.00;9.00
62778;PMS7003;48821;48.796;2.396;2024-03-25T06:22:42;14.25;12.75;8.00
62778;PMS7003;48821;48.796;2.396;2024-03-25T06:23:52;12.50;11.00;5.00
62778;PMS7003;48821;48.796;2.396;2024-03-25T06:25:04;17.80;15.00;8.60
62778;PMS7003;48821;48.796;2.396;2024-03-25T06:26:15;20.00;14.50;7.50
62778;PMS7003;48821;48.796;2.396;2024-03-25T06:27:26;16.00;14.00;8.50
62778;PMS7003;48821;48.796;2.396;2024-03-25T06:28:36;13.50;13.00;8.00
62778;PMS7003;48821;48.796;2.396;2024-03-25T06:29:48;19.67;16.00;11.33
62778;PMS7003;48821;48.796;2.396;2024-03-25T06:30:59;16.50;16.50;11.00
62778;PMS7003;48821;48.796;2.396;2024-03-25T06:32:28;13.50;12.50;10.00
62778;PMS7003;48821;48.796;2.396;2024-03-25T06:33:58;23.00;17.67;12.00
62778;PMS7003;48821;48.796;2.396;2024-03-25T06:35:27;19.00;15.00;11.00
62778;PMS7003;48821;48.796;2.396;2024-03-25T06:36:38;16.00;15.00;10.00
62778;PMS7003;48821;48.796;2.396;2024-03-25T06:37:50;18.00;17.33;12.33
62778;PMS7003;48821;48.796;2.396;2024-03-25T06:39:01;25.25;19.75;13.00
62778;PMS7003;48821;48.796;2.396;2024-03-25T06:40:12;24.00;16.00;12.00
62778;PMS7003;48821;48.796;2.396;2024-03-25T06:41:23;12.50;12.50;7.50
62778;PMS7003;48821;48.796;2.396;2024-03-25T06:42:35;20.67;17.00;12.00
62778;PMS7003;48821;48.796;2.396;2024-03-25T06:43:47;22.33;17.33;13.33
62778;PMS7003;48821;48.796;2.396;2024-03-25T06:45:00;19.33;18.17;12.33
62778;PMS7003;48821;48.796;2.396;2024-03-25T06:46:13;16.33;15.50;9.33